createdAt,value
2019-03-25T00:00:43.586Z,100555.25
2019-03-25T00:03:17.222Z,100556.72
2019-03-25T00:05:47.669Z,100563.86
2019-03-25T00:08:18.110Z,100554.53
2019-03-25T00:10:48.598Z,100560.10
2019-03-25T00:13:19.045Z,100557.58
2019-03-25T00:15:49.540Z,100554.11
2019-03-25T00:18:20.069Z,100548.20
2019-03-25T00:20:50.567Z,100543.86
2019-03-25T00:23:20.998Z,100544.21
2019-03-25T00:25:51.457Z,100543.03
2019-03-25T00:28:21.893Z,100541.86
2019-03-25T00:30:52.382Z,100539.30
2019-03-25T00:33:22.824Z,100534.86
2019-03-25T00:35:53.301Z,100531.66
2019-03-25T00:38:23.743Z,100527.25
2019-03-25T00:40:54.221Z,100525.84
2019-03-25T00:43:24.682Z,100522.31
2019-03-25T00:45:55.131Z,100519.10
2019-03-25T00:48:25.535Z,100511.42
2019-03-25T00:51:01.758Z,100518.28
2019-03-25T00:53:32.181Z,100514.11
2019-03-25T00:56:02.579Z,100513.38
2019-03-25T00:58:33.014Z,100516.06
2019-03-25T01:01:03.470Z,100508.27
2019-03-25T01:03:33.874Z,100511.63
2019-03-25T01:06:04.432Z,100504.13
2019-03-25T01:08:34.948Z,100518.83
2019-03-25T01:11:05.516Z,100521.80
2019-03-25T01:13:37.865Z,100523.55
2019-03-25T01:16:14.336Z,100519.12
2019-03-25T01:18:44.827Z,100521.69
2019-03-25T01:21:15.277Z,100523.56
2019-03-25T01:23:45.697Z,100515.66
2019-03-25T01:26:16.109Z,100512.89
2019-03-25T01:28:46.543Z,100517.02
2019-03-25T01:31:16.993Z,100513.98
2019-03-25T01:33:47.413Z,100511.16
2019-03-25T01:36:17.879Z,100504.08
2019-03-25T01:38:48.300Z,100500.25
2019-03-25T01:41:18.784Z,100502.56
2019-03-25T01:43:49.199Z,100510.59
2019-03-25T01:46:19.694Z,100502.83
2019-03-25T01:48:50.163Z,100503.73
2019-03-25T01:51:21.735Z,100502.83
2019-03-25T01:53:52.126Z,100498.13
2019-03-25T01:56:22.603Z,100501.99
2019-03-25T01:58:53.190Z,100497.73
2019-03-25T02:01:23.662Z,100506.11
2019-03-25T02:03:54.107Z,100501.13
2019-03-25T02:06:24.578Z,100500.64
2019-03-25T02:08:54.965Z,100496.08
2019-03-25T02:11:25.476Z,100496.61
2019-03-25T02:13:55.941Z,100495.22
2019-03-25T02:16:26.393Z,100497.56
2019-03-25T02:18:56.808Z,100498.91
2019-03-25T02:21:27.259Z,100495.52
2019-03-25T02:23:57.672Z,100493.27
2019-03-25T02:26:28.147Z,100488.45
2019-03-25T02:28:58.561Z,100490.14
2019-03-25T02:31:29.002Z,100488.14
2019-03-25T02:33:59.397Z,100476.10
2019-03-25T02:36:29.860Z,100476.41
2019-03-25T02:39:00.273Z,100479.51
2019-03-25T02:41:30.741Z,100479.53
2019-03-25T02:44:01.151Z,100486.25
2019-03-25T02:46:31.621Z,100484.57
2019-03-25T02:49:02.093Z,100485.59
2019-03-25T02:51:33.633Z,100488.62
2019-03-25T02:54:04.080Z,100497.05
2019-03-25T02:56:34.542Z,100486.78
2019-03-25T02:59:04.978Z,100489.33
2019-03-25T03:01:35.482Z,100486.78
2019-03-25T03:04:06.319Z,100486.28
2019-03-25T03:06:36.783Z,100497.70
2019-03-25T03:09:09.777Z,100499.38
2019-03-25T03:11:40.273Z,100505.61
2019-03-25T03:14:10.653Z,100500.55
2019-03-25T03:16:41.119Z,100495.03
2019-03-25T03:19:11.536Z,100501.74
2019-03-25T03:21:42.036Z,100493.19
2019-03-25T03:24:12.507Z,100488.64
2019-03-25T03:26:42.990Z,100496.70
2019-03-25T03:29:13.489Z,100495.70
2019-03-25T03:31:43.933Z,100498.20
2019-03-25T03:34:14.394Z,100491.14
2019-03-25T03:36:44.858Z,100500.35
2019-03-25T03:39:15.275Z,100499.19
2019-03-25T03:41:45.751Z,100511.20
2019-03-25T03:44:16.183Z,100510.02
2019-03-25T03:46:46.649Z,100513.52
2019-03-25T03:49:17.099Z,100507.16
2019-03-25T03:51:48.539Z,100507.97
2019-03-25T03:54:19.163Z,100504.11
2019-03-25T03:56:51.410Z,100507.67
2019-03-25T03:59:21.842Z,100509.89
2019-03-25T04:01:52.334Z,100509.08
2019-03-25T04:04:22.738Z,100509.27
2019-03-25T04:06:53.226Z,100516.50
2019-03-25T04:09:23.670Z,100513.13
2019-03-25T04:11:54.114Z,100516.50
2019-03-25T04:14:24.558Z,100514.84
2019-03-25T04:16:54.997Z,100517.03
2019-03-25T04:19:25.403Z,100513.52
2019-03-25T04:21:55.933Z,100508.46
2019-03-25T04:24:26.397Z,100510.30
2019-03-25T04:26:56.882Z,100509.13
2019-03-25T04:29:27.259Z,100510.14
2019-03-25T04:31:57.704Z,100506.44
2019-03-25T04:34:28.119Z,100507.45
2019-03-25T04:36:58.591Z,100507.96
2019-03-25T04:39:28.990Z,100506.11
2019-03-25T04:41:59.470Z,100503.25
2019-03-25T04:44:29.906Z,100500.88
2019-03-25T04:47:00.390Z,100496.18
2019-03-25T04:49:30.814Z,100496.99
2019-03-25T04:52:02.539Z,100490.58
2019-03-25T04:54:32.983Z,100488.38
2019-03-25T04:57:03.481Z,100483.07
2019-03-25T04:59:33.904Z,100486.36
2019-03-25T05:02:04.363Z,100486.84
2019-03-25T05:04:34.795Z,100489.52
2019-03-25T05:07:05.260Z,100492.45
2019-03-25T05:09:35.709Z,100488.38
2019-03-25T05:12:06.143Z,100490.33
2019-03-25T05:14:36.572Z,100489.91
2019-03-25T05:17:07.056Z,100480.02
2019-03-25T05:19:37.509Z,100479.72
2019-03-25T05:22:08.003Z,100481.73
2019-03-25T05:24:38.419Z,100477.70
2019-03-25T05:27:08.881Z,100479.55
2019-03-25T05:29:39.304Z,100476.60
2019-03-25T05:32:09.770Z,100473.83
2019-03-25T05:34:40.191Z,100470.16
2019-03-25T05:37:10.662Z,100464.20
2019-03-25T05:39:41.065Z,100461.89
2019-03-25T05:42:11.553Z,100464.15
2019-03-25T05:44:41.977Z,100455.20
2019-03-25T05:47:12.428Z,100463.98
2019-03-25T05:49:42.869Z,100466.60
2019-03-25T05:52:14.327Z,100463.14
2019-03-25T05:54:44.746Z,100463.23
2019-03-25T05:57:18.053Z,100472.62
2019-03-25T05:59:48.482Z,100472.08
2019-03-25T06:02:19.199Z,100471.63
2019-03-25T06:04:49.872Z,100466.78
2019-03-25T06:07:21.797Z,100466.20
2019-03-25T06:09:52.220Z,100474.55
2019-03-25T06:12:22.686Z,100469.86
2019-03-25T06:14:53.335Z,100471.55
2019-03-25T06:17:26.546Z,100465.34
2019-03-25T06:19:56.991Z,100467.05
2019-03-25T06:22:27.460Z,100458.02
2019-03-25T06:24:57.864Z,100463.91
2019-03-25T06:27:28.357Z,100466.88
2019-03-25T06:29:58.745Z,100456.55
2019-03-25T06:32:29.224Z,100454.77
2019-03-25T06:34:59.647Z,100450.52
2019-03-25T06:37:30.097Z,100453.53
2019-03-25T06:40:00.545Z,100453.12
2019-03-25T06:42:30.949Z,100459.12
2019-03-25T06:45:01.391Z,100457.20
2019-03-25T06:47:31.838Z,100458.45
2019-03-25T06:50:02.246Z,100458.02
2019-03-25T06:52:33.875Z,100462.64
2019-03-25T06:55:05.284Z,100461.52
2019-03-25T06:57:38.447Z,100461.83
2019-03-25T07:00:09.610Z,100458.41
2019-03-25T07:02:40.049Z,100454.94
2019-03-25T07:05:10.994Z,100452.42
2019-03-25T07:07:41.526Z,100450.09
2019-03-25T07:10:12.148Z,100444.81
2019-03-25T07:12:42.599Z,100433.37
2019-03-25T07:15:13.059Z,100442.92
2019-03-25T07:17:43.531Z,100439.95
2019-03-25T07:20:14.658Z,100431.06
2019-03-25T07:22:45.126Z,100432.12
2019-03-25T07:25:15.570Z,100432.12
2019-03-25T07:27:46.050Z,100434.03
2019-03-25T07:30:16.477Z,100426.44
2019-03-25T07:32:46.978Z,100424.81
2019-03-25T07:35:17.547Z,100428.20
2019-03-25T07:37:48.014Z,100426.61
2019-03-25T07:40:18.597Z,100425.36
2019-03-25T07:42:49.098Z,100426.33
2019-03-25T07:45:19.552Z,100420.11
2019-03-25T07:47:50.018Z,100420.28
2019-03-25T07:50:20.453Z,100412.57
2019-03-25T07:52:51.876Z,100406.16
2019-03-25T07:55:22.335Z,100401.94
2019-03-25T07:57:52.825Z,100398.70
2019-03-25T08:00:23.328Z,100394.44
2019-03-25T08:02:54.196Z,100398.31
2019-03-25T08:05:24.715Z,100400.67
2019-03-25T08:07:57.922Z,100406.30
2019-03-25T08:10:33.134Z,100404.22
2019-03-25T08:13:03.788Z,100405.97
2019-03-25T08:15:34.344Z,100400.64
2019-03-25T08:18:07.386Z,100406.86
2019-03-25T08:20:39.366Z,100404.59
2019-03-25T08:23:09.841Z,100412.80
2019-03-25T08:25:45.538Z,100413.55
2019-03-25T08:28:19.519Z,100417.31
2019-03-25T08:30:51.605Z,100415.59
2019-03-25T08:33:24.036Z,100418.25
2019-03-25T08:35:54.488Z,100424.75
2019-03-25T08:38:24.904Z,100422.02
2019-03-25T08:40:55.325Z,100434.45
2019-03-25T08:43:26.251Z,100437.20
2019-03-25T08:45:56.939Z,100443.56
2019-03-25T08:48:30.620Z,100440.80
2019-03-25T08:51:01.026Z,100433.64
2019-03-25T08:53:39.490Z,100426.91
2019-03-25T08:56:09.998Z,100430.66
2019-03-25T08:58:40.467Z,100437.40
2019-03-25T09:01:10.879Z,100426.98
2019-03-25T09:03:41.281Z,100423.07
2019-03-25T09:06:21.556Z,100424.18
2019-03-25T09:08:52.090Z,100423.32
2019-03-25T09:11:26.841Z,100422.98
2019-03-25T09:14:01.414Z,100408.46
2019-03-25T09:16:34.921Z,100410.80
2019-03-25T09:19:11.687Z,100413.31
2019-03-25T09:21:42.822Z,100403.56
2019-03-25T09:24:13.369Z,100407.40
2019-03-25T09:26:46.068Z,100413.69
2019-03-25T09:29:20.003Z,100395.50
2019-03-25T09:31:53.553Z,100401.95
2019-03-25T09:34:25.052Z,100394.98
2019-03-25T09:36:57.503Z,100381.61
2019-03-25T09:39:28.004Z,100382.50
2019-03-25T09:41:58.489Z,100381.31
2019-03-25T09:44:29.120Z,100372.33
2019-03-25T09:46:59.569Z,100373.32
2019-03-25T09:49:30.154Z,100375.20
2019-03-25T09:52:02.824Z,100373.99
2019-03-25T09:54:34.389Z,100368.30
2019-03-25T09:57:08.980Z,100361.39
2019-03-25T09:59:39.445Z,100361.34
2019-03-25T10:02:09.958Z,100354.73
2019-03-25T10:04:40.699Z,100356.84
2019-03-25T10:07:15.788Z,100350.27
2019-03-25T10:09:46.310Z,100353.22
2019-03-25T10:12:18.308Z,100360.60
2019-03-25T10:14:48.842Z,100347.75
2019-03-25T10:17:19.754Z,100365.42
2019-03-25T10:19:50.315Z,100353.80
2019-03-25T10:22:20.819Z,100355.41
2019-03-25T10:24:51.898Z,100352.42
2019-03-25T10:27:22.473Z,100355.48
2019-03-25T10:33:11.761Z,100356.97
2019-03-25T10:35:43.836Z,100345.74
2019-03-25T10:38:19.554Z,100340.47
2019-03-25T10:40:46.591Z,100344.08
2019-03-25T10:43:17.061Z,100322.94
2019-03-25T10:45:47.661Z,100325.80
2019-03-25T10:48:21.296Z,100330.20
2019-03-25T10:51:00.408Z,100316.42
2019-03-25T10:53:30.809Z,100311.77
2019-03-25T10:56:02.996Z,100301.48
2019-03-25T10:58:33.413Z,100300.84
2019-03-25T11:01:03.922Z,100302.52
2019-03-25T11:03:34.340Z,100296.12
2019-03-25T11:06:04.816Z,100296.77
2019-03-25T11:08:35.355Z,100291.74
2019-03-25T11:11:06.426Z,100285.40
2019-03-25T11:13:37.139Z,100274.19
2019-03-25T11:16:08.019Z,100263.30
2019-03-25T11:18:38.643Z,100253.30
2019-03-25T11:21:09.154Z,100250.81
2019-03-25T11:23:39.594Z,100248.83
2019-03-25T11:26:10.086Z,100246.36
2019-03-25T11:28:40.554Z,100245.02
2019-03-25T11:31:11.025Z,100238.86
2019-03-25T11:33:41.445Z,100235.81
2019-03-25T11:36:12.257Z,100233.56
2019-03-25T11:38:45.507Z,100225.81
2019-03-25T11:41:15.979Z,100226.91
2019-03-25T11:43:46.414Z,100209.91
2019-03-25T11:46:16.897Z,100216.78
2019-03-25T11:48:47.369Z,100216.46
2019-03-25T11:51:17.846Z,100212.84
2019-03-25T11:53:48.396Z,100199.15
2019-03-25T11:56:21.446Z,100193.40
2019-03-25T11:58:53.885Z,100202.09
2019-03-25T12:01:24.390Z,100193.66
2019-03-25T12:03:54.938Z,100202.75
2019-03-25T12:06:25.749Z,100202.18
2019-03-25T12:08:56.250Z,100193.93
2019-03-25T12:11:27.337Z,100197.60
2019-03-25T12:14:00.842Z,100190.83
2019-03-25T12:16:32.484Z,100188.71
2019-03-25T12:19:05.526Z,100185.13
2019-03-25T12:21:36.015Z,100185.69
2019-03-25T12:24:06.595Z,100182.13
2019-03-25T12:26:37.254Z,100185.48
2019-03-25T12:29:10.022Z,100192.25
2019-03-25T12:31:42.000Z,100185.00
2019-03-25T12:34:14.857Z,100185.06
2019-03-25T12:36:50.207Z,100189.20
2019-03-25T12:39:20.663Z,100182.33
2019-03-25T12:41:51.169Z,100186.08
2019-03-25T12:44:23.351Z,100175.98
2019-03-25T12:46:54.220Z,100173.02
2019-03-25T12:49:27.718Z,100157.84
2019-03-25T12:51:58.613Z,100162.52
2019-03-25T12:54:29.415Z,100157.23
2019-03-25T12:57:01.624Z,100158.12
2019-03-25T12:59:40.775Z,100159.41
2019-03-25T13:02:04.666Z,100175.64
2019-03-25T13:04:35.201Z,100161.92
2019-03-25T13:07:06.083Z,100162.66
2019-03-25T13:09:36.584Z,100149.73
2019-03-25T13:12:07.498Z,100143.48
2019-03-25T13:14:39.064Z,100155.53
2019-03-25T13:17:09.666Z,100137.18
2019-03-25T13:19:40.301Z,100140.55
2019-03-25T13:22:10.809Z,100142.07
2019-03-25T13:24:41.982Z,100145.55
2019-03-25T13:27:13.864Z,100145.58
2019-03-25T13:29:52.400Z,100142.39
2019-03-25T13:32:18.379Z,100138.77
2019-03-25T13:34:48.891Z,100141.02
2019-03-25T13:37:20.287Z,100137.89
2019-03-25T13:39:51.379Z,100148.44
2019-03-25T13:42:22.457Z,100146.52
2019-03-25T13:44:55.593Z,100147.62
2019-03-25T13:47:25.730Z,100140.81
2019-03-25T13:49:58.210Z,100122.77
2019-03-25T13:52:29.206Z,100118.73
2019-03-25T13:55:00.469Z,100129.09
2019-03-25T13:57:42.606Z,100129.48
2019-03-25T14:00:13.983Z,100135.67
2019-03-25T14:02:44.632Z,100143.08
2019-03-25T14:05:15.329Z,100137.61
2019-03-25T14:08:14.430Z,100136.36
2019-03-25T14:10:44.593Z,100135.56
2019-03-25T14:13:16.348Z,100144.26
2019-03-25T14:15:46.803Z,100146.91
2019-03-25T14:18:17.605Z,100150.90
2019-03-25T14:20:52.371Z,100141.73
2019-03-25T14:23:23.082Z,100139.59
2019-03-25T14:25:53.566Z,100142.16
2019-03-25T14:28:25.696Z,100151.30
2019-03-25T14:31:00.477Z,100162.48
2019-03-25T14:33:31.029Z,100149.69
2019-03-25T14:36:02.103Z,100146.95
2019-03-25T14:38:32.650Z,100126.33
2019-03-25T14:41:08.548Z,100137.95
2019-03-25T14:44:08.941Z,100143.76
2019-03-25T14:46:56.496Z,100147.07
2019-03-25T14:49:42.688Z,100141.61
2019-03-25T14:52:14.920Z,100123.88
2019-03-25T14:54:51.852Z,100120.53
2019-03-25T14:57:28.207Z,100119.95
2019-03-25T15:00:01.823Z,100110.67
2019-03-25T15:02:32.504Z,100116.55
2019-03-25T15:05:05.216Z,100116.72
2019-03-25T15:07:35.651Z,100117.86
2019-03-25T15:10:08.509Z,100112.41
2019-03-25T15:12:40.536Z,100109.91
2019-03-25T15:15:12.078Z,100103.21
2019-03-25T15:17:52.656Z,100103.81
2019-03-25T15:20:27.936Z,100107.42
2019-03-25T15:22:58.403Z,100108.08
2019-03-25T15:25:28.928Z,100113.34
2019-03-25T15:27:59.551Z,100116.50
2019-03-25T15:30:35.961Z,100113.11
2019-03-25T15:33:06.639Z,100120.06
2019-03-25T15:35:38.303Z,100124.25
2019-03-25T15:38:10.437Z,100117.67
2019-03-25T15:40:41.020Z,100113.12
2019-03-25T15:43:11.547Z,100110.94
2019-03-25T15:45:42.029Z,100110.94
2019-03-25T15:48:12.519Z,100108.98
2019-03-25T15:50:43.169Z,100112.58
2019-03-25T15:53:13.633Z,100106.23
2019-03-25T15:55:44.128Z,100104.59
2019-03-25T15:58:25.338Z,100101.48
2019-03-25T16:00:48.604Z,100101.61
2019-03-25T16:03:19.147Z,100096.27
2019-03-25T16:05:50.050Z,100092.00
2019-03-25T16:08:21.926Z,100092.80
2019-03-25T16:10:52.458Z,100090.23
2019-03-25T16:13:22.984Z,100093.59
2019-03-25T16:15:53.732Z,100095.52
2019-03-25T16:18:38.175Z,100096.16
2019-03-25T16:21:09.191Z,100102.38
2019-03-25T16:23:39.719Z,100086.73
2019-03-25T16:26:10.213Z,100100.41
2019-03-25T16:28:40.624Z,100096.20
2019-03-25T16:31:11.120Z,100102.97
2019-03-25T16:33:41.526Z,100106.02
2019-03-25T16:36:11.997Z,100106.02
2019-03-25T16:38:42.416Z,100097.56
2019-03-25T16:41:12.890Z,100100.29
2019-03-25T16:43:43.333Z,100098.03
2019-03-25T16:46:13.810Z,100098.03
2019-03-25T16:48:44.287Z,100102.78
2019-03-25T16:51:14.687Z,100102.35
2019-03-25T16:53:45.084Z,100109.23
2019-03-25T16:56:15.528Z,100103.85
2019-03-25T16:58:45.932Z,100110.40
2019-03-25T17:01:15.685Z,100109.65
2019-03-25T17:03:46.198Z,100102.87
2019-03-25T17:06:16.610Z,100118.39
2019-03-25T17:08:47.047Z,100121.56
2019-03-25T17:11:19.462Z,100125.88
2019-03-25T17:13:49.569Z,100133.99
2019-03-25T17:16:19.973Z,100134.13
2019-03-25T17:18:50.399Z,100144.78
2019-03-25T17:21:20.785Z,100152.42
2019-03-25T17:23:51.216Z,100154.01
2019-03-25T17:26:21.602Z,100164.94
2019-03-25T17:28:52.067Z,100168.21
2019-03-25T17:31:22.458Z,100164.33
2019-03-25T17:33:52.841Z,100165.11
2019-03-25T17:36:23.237Z,100171.70
2019-03-25T17:38:53.709Z,100175.72
2019-03-25T17:41:24.218Z,100184.30
2019-03-25T17:43:54.661Z,100186.31
2019-03-25T17:46:25.107Z,100186.11
2019-03-25T17:48:55.540Z,100187.30
2019-03-25T17:51:25.936Z,100186.65
2019-03-25T17:53:56.416Z,100186.05
2019-03-25T17:56:26.828Z,100173.98
2019-03-25T17:58:57.278Z,100174.23
2019-03-25T18:01:32.561Z,100165.18
2019-03-25T18:04:02.347Z,100163.53
2019-03-25T18:06:32.794Z,100156.71
2019-03-25T18:09:04.468Z,100158.71
2019-03-25T18:11:34.891Z,100157.18
2019-03-25T18:14:05.596Z,100151.81
2019-03-25T18:16:36.028Z,100151.17
2019-03-25T18:19:06.499Z,100146.67
2019-03-25T18:21:36.907Z,100143.64
2019-03-25T18:24:09.360Z,100143.81
2019-03-25T18:26:43.409Z,100137.14
2019-03-25T18:29:17.055Z,100144.20
2019-03-25T18:31:47.352Z,100147.45
2019-03-25T18:34:17.812Z,100145.53
2019-03-25T18:36:48.250Z,100152.48
2019-03-25T18:39:18.696Z,100141.47
2019-03-25T18:41:49.143Z,100146.05
2019-03-25T18:44:19.614Z,100137.56
2019-03-25T18:46:50.108Z,100137.12
2019-03-25T18:49:20.634Z,100132.58
2019-03-25T18:51:51.049Z,100130.61
2019-03-25T18:54:21.534Z,100123.61
2019-03-25T18:56:51.935Z,100127.31
2019-03-25T18:59:22.415Z,100124.20
2019-03-25T19:01:54.641Z,100122.10
2019-03-25T19:04:27.292Z,100116.77
2019-03-25T19:06:58.129Z,100124.64
2019-03-25T19:09:28.596Z,100124.97
2019-03-25T19:11:58.993Z,100120.40
2019-03-25T19:14:29.431Z,100112.71
2019-03-25T19:16:59.847Z,100120.69
2019-03-25T19:19:30.313Z,100116.56
2019-03-25T19:22:00.749Z,100119.21
2019-03-25T19:24:31.196Z,100116.18
2019-03-25T19:27:03.249Z,100117.70
2019-03-25T19:29:33.700Z,100107.48
2019-03-25T19:32:06.845Z,100108.20
2019-03-25T19:34:36.276Z,100115.05
2019-03-25T19:37:06.683Z,100115.05
2019-03-25T19:39:37.202Z,100106.41
2019-03-25T19:42:07.609Z,100102.88
2019-03-25T19:44:38.061Z,100107.31
2019-03-25T19:47:08.423Z,100108.27
2019-03-25T19:49:38.862Z,100101.55
2019-03-25T19:52:09.624Z,100102.90
2019-03-25T19:54:40.128Z,100100.55
2019-03-25T19:57:10.576Z,100100.38
2019-03-25T19:59:41.058Z,100099.39
2019-03-25T20:02:19.065Z,100101.13
2019-03-25T20:04:44.669Z,100103.24
2019-03-25T20:07:15.127Z,100106.03
2019-03-25T20:09:45.652Z,100100.22
2019-03-25T20:12:16.042Z,100113.25
2019-03-25T20:14:46.530Z,100114.56
2019-03-25T20:17:16.964Z,100112.98
2019-03-25T20:19:47.409Z,100116.55
2019-03-25T20:22:17.809Z,100120.12
2019-03-25T20:24:48.250Z,100120.51
2019-03-25T20:27:18.688Z,100112.11
2019-03-25T20:29:49.179Z,100109.05
2019-03-25T20:32:31.286Z,100115.30
2019-03-25T20:34:51.840Z,100103.91
2019-03-25T20:37:22.249Z,100100.67
2019-03-25T20:39:52.719Z,100102.42
2019-03-25T20:42:23.152Z,100107.97
2019-03-25T20:44:53.755Z,100102.88
2019-03-25T20:47:24.141Z,100094.67
2019-03-25T20:49:54.595Z,100083.55
2019-03-25T20:52:25.032Z,100070.84
2019-03-25T20:54:55.550Z,100079.66
2019-03-25T20:57:25.999Z,100085.73
2019-03-25T20:59:56.475Z,100089.69
2019-03-25T21:02:27.796Z,100097.72
2019-03-25T21:04:58.317Z,100087.73
2019-03-25T21:07:28.835Z,100082.09
2019-03-25T21:09:59.378Z,100074.56
2019-03-25T21:12:29.841Z,100082.13
2019-03-25T21:15:00.372Z,100077.20
2019-03-25T21:17:30.833Z,100070.89
2019-03-25T21:20:01.329Z,100073.64
2019-03-25T21:22:31.730Z,100072.60
2019-03-25T21:25:02.110Z,100064.89
2019-03-25T21:27:32.526Z,100059.61
2019-03-25T21:30:02.951Z,100060.03
2019-03-25T21:32:33.340Z,100063.78
2019-03-25T21:35:04.372Z,100051.27
2019-03-25T21:37:34.785Z,100051.40
2019-03-25T21:40:07.707Z,100049.33
2019-03-25T21:42:38.023Z,100050.36
2019-03-25T21:45:10.620Z,100053.05
2019-03-25T21:47:41.034Z,100051.42
2019-03-25T21:50:11.762Z,100057.77
2019-03-25T21:52:42.233Z,100065.71
2019-03-25T21:55:12.846Z,100078.22
2019-03-25T21:57:43.298Z,100083.94
2019-03-25T22:00:13.956Z,100084.14
2019-03-25T22:02:45.226Z,100087.27
2019-03-25T22:05:15.773Z,100079.14
2019-03-25T22:07:46.177Z,100082.59
2019-03-25T22:10:16.588Z,100079.38
2019-03-25T22:12:47.008Z,100082.42
2019-03-25T22:15:17.591Z,100080.44
2019-03-25T22:17:48.011Z,100070.13
2019-03-25T22:20:18.539Z,100065.75
2019-03-25T22:22:48.933Z,100073.38
2019-03-25T22:25:19.406Z,100064.59
2019-03-25T22:27:49.793Z,100074.48
2019-03-25T22:30:20.238Z,100074.94
2019-03-25T22:32:50.659Z,100071.91
2019-03-25T22:35:21.090Z,100080.55
2019-03-25T22:37:51.512Z,100082.11
2019-03-25T22:40:21.991Z,100080.67
2019-03-25T22:42:52.405Z,100083.17
2019-03-25T22:45:29.836Z,100092.66
2019-03-25T22:48:00.249Z,100102.55
2019-03-25T22:50:32.068Z,100088.06
2019-03-25T22:53:02.483Z,100078.59
2019-03-25T22:55:32.867Z,100075.03
2019-03-25T22:58:03.262Z,100082.42
2019-03-25T23:00:41.697Z,100070.03
2019-03-25T23:03:13.850Z,100066.50
2019-03-25T23:05:44.411Z,100072.21
2019-03-25T23:08:14.823Z,100073.16
2019-03-25T23:10:45.297Z,100074.41
2019-03-25T23:13:15.718Z,100076.06
2019-03-25T23:15:46.165Z,100075.25
2019-03-25T23:18:16.571Z,100087.95
2019-03-25T23:20:47.028Z,100072.95
2019-03-25T23:23:17.443Z,100073.48
2019-03-25T23:25:47.907Z,100086.28
2019-03-25T23:28:18.301Z,100086.16
2019-03-25T23:30:48.738Z,100093.78
2019-03-25T23:33:19.130Z,100094.60
2019-03-25T23:35:49.577Z,100098.25
2019-03-25T23:38:20.011Z,100104.28
2019-03-25T23:40:50.370Z,100108.55
2019-03-25T23:43:20.867Z,100094.40
2019-03-25T23:45:51.325Z,100104.28
2019-03-25T23:48:21.709Z,100111.66
2019-03-25T23:50:52.153Z,100111.05
2019-03-25T23:53:22.554Z,100115.52
2019-03-25T23:55:53.006Z,100112.69
2019-03-25T23:58:23.407Z,100109.48
